Terminal Aerodrome Forecast
Issued by NWS Milwaukee/Sullivan, WI

Home | Current Version | Previous Version | Text Only | Print | Product List | Glossary On
Versions: 1 2 3 4 5 6 7 8 9 10 11 12 13 14 15 16 17 18 19 20 21 22 23 24 25 26 27 28 29 30 31 32 33 34 35 36 37 38
000
FTUS43 KMKX 260520
TAFMKE
TAF
KMKE 260520Z 2606/2712 15008KT P6SM BKN150
     FM261000 16010KT P6SM VCSH SCT070 BKN130
     FM261200 16009KT P6SM VCTS BKN060CB
     FM261500 17012KT P6SM SHRA VCTS SCT040 BKN060CB
     FM261800 19013KT P6SM -SHRA VCTS BKN035CB
     FM270000 19009KT 3SM SHRA BR OVC010
     FM270500 24005KT 5SM SHRA BR OVC008
     FM271000 28006KT P6SM SHRA OVC008=

USA.gov is the U.S. government's official web portal to all federal, state and local government web resources and services.